PWSweather.com
Personal Weather Stations
Station Observations
ITROMSTR4
From Fagereng Towards West Sandnessundet, TromsoeNO 9013

From Fagereng Towards West SandnessundetTromsoeNO 9013

Lat: 69.644853, Lon: 18.908345

Elevation: 150

Station Type: WH-1080

http://www.hugooien.no/?go=weather

Latest ConditionsUpdated 12:50:00 PM GMT+01:01 Friday, Apr 19, 2019
Currently Today's Max Today's Min Today's Average
Temperature 40.6°F4.8°C 40.6°F4.8°C 37.9°F3.3°C 39.1°F3.9°C
Dew Point 32.7°F0.4°C 33.5°F0.8°C 28.5°F-1.9°C 30.3°F-0.9°C
Winds 17.7 mph S28.5 kmh S 20.2 mph -32.5 kmh - - 10.5 mph 16.9 kmh
Wind Gusts 27.3 mph43.9 kmh 32.0 mph51.5 kmh - -
Humidity 73% 80% 63% 70%
Pressure 31.39 in1063.0 mb 31.50 in1066.7 mb 31.39 in1063.0 mb -
Hour Temp Dew Point Humidity Winds Wind Gusts Pressure Precip Precip Rate Daily Precip Total
12:50 PM 40.6°F4.8°C 32.7°F0.4°C 73% 17.7 mph S28.5 kmh S 27.3 mph43.9 kmh 31.39 in1063.0 mb 0.00 in0.0 mm 0.00 in0.0 mm 0.00 in0.0 mm
12:45 PM 40.6°F4.8°C 32.7°F0.4°C 73% 18.1 mph SSW29.1 kmh SSW 27.3 mph43.9 kmh 31.39 in1063.0 mb 0.00 in0.0 mm 0.00 in0.0 mm 0.00 in0.0 mm
12:40 PM 40.6°F4.8°C 33.0°F0.6°C 74% 18.0 mph S29.0 kmh S 27.3 mph43.9 kmh 31.40 in1063.3 mb 0.00 in0.0 mm 0.00 in0.0 mm 0.00 in0.0 mm
12:35 PM 40.5°F4.7°C 33.5°F0.8°C 76% 16.0 mph S25.7 kmh S 25.9 mph41.7 kmh 31.39 in1063.0 mb 0.00 in0.0 mm 0.00 in0.0 mm 0.00 in0.0 mm
12:30 PM 39.9°F4.4°C 33.3°F0.7°C 77% 14.9 mph S24.0 kmh S 24.4 mph39.3 kmh 31.39 in1063.0 mb 0.00 in0.0 mm 0.00 in0.0 mm 0.00 in0.0 mm
12:25 PM 39.6°F4.2°C 33.0°F0.6°C 77% 15.1 mph S24.3 kmh S 23.5 mph37.8 kmh 31.39 in1063.0 mb 0.00 in0.0 mm 0.00 in0.0 mm 0.00 in0.0 mm
12:20 PM 39.6°F4.2°C 33.0°F0.6°C 77% 14.8 mph S23.8 kmh S 22.1 mph35.6 kmh 31.39 in1063.0 mb 0.00 in0.0 mm 0.00 in0.0 mm 0.00 in0.0 mm
12:15 PM 39.6°F4.2°C 33.3°F0.7°C 78% 16.1 mph S25.9 kmh S 26.6 mph42.8 kmh 31.40 in1063.3 mb 0.00 in0.0 mm 0.00 in0.0 mm 0.00 in0.0 mm
12:10 PM 39.6°F4.2°C 33.0°F0.6°C 77% 16.6 mph S26.7 kmh S 26.6 mph42.8 kmh 31.40 in1063.3 mb 0.00 in0.0 mm 0.00 in0.0 mm 0.00 in0.0 mm
12:05 PM 39.6°F4.2°C 33.0°F0.6°C 77% 15.3 mph S24.6 kmh S 25.9 mph41.7 kmh 31.40 in1063.3 mb 0.00 in0.0 mm 0.00 in0.0 mm 0.00 in0.0 mm
12:00 PM 39.6°F4.2°C 33.0°F0.6°C 77% 14.4 mph S23.2 kmh S 22.8 mph36.7 kmh 31.40 in1063.3 mb 0.00 in0.0 mm 0.00 in0.0 mm 0.00 in0.0 mm
11:55 AM 39.6°F4.2°C 33.3°F0.7°C 78% 15.4 mph SSW24.8 kmh SSW 24.4 mph39.3 kmh 31.40 in1063.3 mb 0.00 in0.0 mm 0.00 in0.0 mm 0.00 in0.0 mm
11:50 AM 39.4°F4.1°C 33.4°F0.8°C 79% 17.0 mph SSW27.4 kmh SSW 25.9 mph41.7 kmh 31.40 in1063.3 mb 0.00 in0.0 mm 0.00 in0.0 mm 0.00 in0.0 mm
11:45 AM 39.4°F4.1°C 33.1°F0.6°C 78% 17.3 mph S27.8 kmh S 25.9 mph41.7 kmh 31.40 in1063.3 mb 0.00 in0.0 mm 0.00 in0.0 mm 0.00 in0.0 mm
11:40 AM 39.2°F4.0°C 32.6°F0.3°C 77% 16.8 mph S27.0 kmh S 24.4 mph39.3 kmh 31.40 in1063.3 mb 0.00 in0.0 mm 0.00 in0.0 mm 0.00 in0.0 mm
11:35 AM 39.0°F3.9°C 32.8°F0.4°C 78% 16.6 mph S26.7 kmh S 24.4 mph39.3 kmh 31.41 in1063.7 mb 0.00 in0.0 mm 0.00 in0.0 mm 0.00 in0.0 mm
11:30 AM 38.8°F3.8°C 32.6°F0.3°C 78% 18.1 mph S29.1 kmh S 29.8 mph48.0 kmh 31.41 in1063.7 mb 0.00 in0.0 mm 0.00 in0.0 mm 0.00 in0.0 mm
11:25 AM 38.7°F3.7°C 32.7°F0.4°C 79% 19.3 mph S31.1 kmh S 29.8 mph48.0 kmh 31.41 in1063.7 mb 0.00 in0.0 mm 0.00 in0.0 mm 0.00 in0.0 mm
11:20 AM 38.5°F3.6°C 32.2°F0.1°C 78% 20.2 mph S32.5 kmh S 32.0 mph51.5 kmh 31.41 in1063.7 mb 0.00 in0.0 mm 0.00 in0.0 mm 0.00 in0.0 mm
11:15 AM 38.5°F3.6°C 32.2°F0.1°C 78% 19.0 mph S30.6 kmh S 32.0 mph51.5 kmh 31.41 in1063.7 mb 0.00 in0.0 mm 0.00 in0.0 mm 0.00 in0.0 mm
11:10 AM 38.5°F3.6°C 32.5°F0.3°C 79% 16.1 mph S25.9 kmh S 28.2 mph45.4 kmh 31.41 in1063.7 mb 0.00 in0.0 mm 0.00 in0.0 mm 0.00 in0.0 mm
11:05 AM 38.5°F3.6°C 32.5°F0.3°C 79% 15.4 mph S24.8 kmh S 23.5 mph37.8 kmh 31.41 in1063.7 mb 0.00 in0.0 mm 0.00 in0.0 mm 0.00 in0.0 mm
11:00 AM 38.3°F3.5°C 32.7°F0.4°C 80% 14.7 mph SSE23.7 kmh SSE 22.1 mph35.6 kmh 31.41 in1063.7 mb 0.00 in0.0 mm 0.00 in0.0 mm 0.00 in0.0 mm
10:55 AM 38.3°F3.5°C 32.7°F0.4°C 80% 14.0 mph S22.5 kmh S 21.3 mph34.3 kmh 31.41 in1063.7 mb 0.00 in0.0 mm 0.00 in0.0 mm 0.00 in0.0 mm
10:50 AM 38.1°F3.4°C 32.2°F0.1°C 79% 13.5 mph S21.7 kmh S 21.3 mph34.3 kmh 31.42 in1064.0 mb 0.00 in0.0 mm 0.00 in0.0 mm 0.00 in0.0 mm
10:45 AM 38.1°F3.4°C 32.2°F0.1°C 79% 13.8 mph S22.2 kmh S 20.6 mph33.2 kmh 31.41 in1063.7 mb 0.00 in0.0 mm 0.00 in0.0 mm 0.00 in0.0 mm
10:40 AM 38.1°F3.4°C 32.2°F0.1°C 79% 15.1 mph SSW24.3 kmh SSW 24.4 mph39.3 kmh 31.42 in1064.0 mb 0.00 in0.0 mm 0.00 in0.0 mm 0.00 in0.0 mm
10:35 AM 37.9°F3.3°C 32.3°F0.2°C 80% 15.8 mph SSW25.4 kmh SSW 24.4 mph39.3 kmh 31.42 in1064.0 mb 0.00 in0.0 mm 0.00 in0.0 mm 0.00 in0.0 mm
10:30 AM 37.9°F3.3°C 32.3°F0.2°C 80% 15.7 mph SSW25.3 kmh SSW 24.4 mph39.3 kmh 31.43 in1064.3 mb 0.00 in0.0 mm 0.00 in0.0 mm 0.00 in0.0 mm
10:25 AM 37.9°F3.3°C 32.0°F0.0°C 79% 15.5 mph S24.9 kmh S 22.1 mph35.6 kmh 31.43 in1064.3 mb 0.00 in0.0 mm 0.00 in0.0 mm 0.00 in0.0 mm
10:20 AM 37.9°F3.3°C 31.7°F-0.2°C 78% 15.9 mph S25.6 kmh S 25.1 mph40.4 kmh 31.43 in1064.3 mb 0.00 in0.0 mm 0.00 in0.0 mm 0.00 in0.0 mm
10:15 AM 38.1°F3.4°C 31.9°F-0.1°C 78% 16.7 mph S26.9 kmh S 25.1 mph40.4 kmh 31.43 in1064.3 mb 0.00 in0.0 mm 0.00 in0.0 mm 0.00 in0.0 mm
10:10 AM 38.1°F3.4°C 31.6°F-0.2°C 77% 15.2 mph S24.5 kmh S 25.1 mph40.4 kmh 31.42 in1064.0 mb 0.00 in0.0 mm 0.00 in0.0 mm 0.00 in0.0 mm
10:05 AM 38.1°F3.4°C 31.6°F-0.2°C 77% 13.2 mph S21.2 kmh S 22.1 mph35.6 kmh 31.43 in1064.3 mb 0.00 in0.0 mm 0.00 in0.0 mm 0.00 in0.0 mm
10:00 AM 38.3°F3.5°C 31.4°F-0.3°C 76% 13.8 mph S22.2 kmh S 22.1 mph35.6 kmh 31.43 in1064.3 mb 0.00 in0.0 mm 0.00 in0.0 mm 0.00 in0.0 mm
09:55 AM 38.3°F3.5°C 31.1°F-0.5°C 75% 14.6 mph S23.5 kmh S 22.8 mph36.7 kmh 31.43 in1064.3 mb 0.00 in0.0 mm 0.00 in0.0 mm 0.00 in0.0 mm
09:50 AM 38.5°F3.6°C 31.3°F-0.4°C 75% 15.3 mph SSE24.6 kmh SSE 22.8 mph36.7 kmh 31.43 in1064.3 mb 0.00 in0.0 mm 0.00 in0.0 mm 0.00 in0.0 mm
09:45 AM 38.5°F3.6°C 31.3°F-0.4°C 75% 14.4 mph S23.2 kmh S 22.8 mph36.7 kmh 31.43 in1064.3 mb 0.00 in0.0 mm 0.00 in0.0 mm 0.00 in0.0 mm
09:40 AM 38.7°F3.7°C 30.8°F-0.7°C 73% 13.3 mph S21.4 kmh S 22.1 mph35.6 kmh 31.43 in1064.3 mb 0.00 in0.0 mm 0.00 in0.0 mm 0.00 in0.0 mm
09:35 AM 38.8°F3.8°C 30.6°F-0.8°C 72% 15.0 mph S24.1 kmh S 22.8 mph36.7 kmh 31.43 in1064.3 mb 0.00 in0.0 mm 0.00 in0.0 mm 0.00 in0.0 mm
09:30 AM 38.8°F3.8°C 30.3°F-0.9°C 71% 16.4 mph S26.4 kmh S 22.8 mph36.7 kmh 31.43 in1064.3 mb 0.00 in0.0 mm 0.00 in0.0 mm 0.00 in0.0 mm
09:25 AM 39.2°F4.0°C 30.6°F-0.8°C 71% 15.2 mph S24.5 kmh S 22.8 mph36.7 kmh 31.43 in1064.3 mb 0.00 in0.0 mm 0.00 in0.0 mm 0.00 in0.0 mm
09:20 AM 39.4°F4.1°C 30.8°F-0.7°C 71% 14.2 mph S22.9 kmh S 22.1 mph35.6 kmh 31.43 in1064.3 mb 0.00 in0.0 mm 0.00 in0.0 mm 0.00 in0.0 mm
09:15 AM 39.4°F4.1°C 30.4°F-0.9°C 70% 14.5 mph S23.3 kmh S 20.6 mph33.2 kmh 31.44 in1064.7 mb 0.00 in0.0 mm 0.00 in0.0 mm 0.00 in0.0 mm
09:10 AM 39.6°F4.2°C 30.9°F-0.6°C 71% 15.5 mph S24.9 kmh S 23.5 mph37.8 kmh 31.43 in1064.3 mb 0.00 in0.0 mm 0.00 in0.0 mm 0.00 in0.0 mm
09:05 AM 39.4°F4.1°C 30.8°F-0.7°C 71% 16.5 mph S26.6 kmh S 23.5 mph37.8 kmh 31.44 in1064.7 mb 0.00 in0.0 mm 0.00 in0.0 mm 0.00 in0.0 mm
09:00 AM 39.7°F4.3°C 30.8°F-0.7°C 70% 16.3 mph S26.2 kmh S 23.5 mph37.8 kmh 31.44 in1064.7 mb 0.00 in0.0 mm 0.00 in0.0 mm 0.00 in0.0 mm
08:55 AM 40.1°F4.5°C 30.8°F-0.7°C 69% 14.0 mph SSW22.5 kmh SSW 21.3 mph34.3 kmh 31.43 in1064.3 mb 0.00 in0.0 mm 0.00 in0.0 mm 0.00 in0.0 mm
08:50 AM 40.1°F4.5°C 31.1°F-0.5°C 70% 12.5 mph SSW20.1 kmh SSW 19.7 mph31.7 kmh 31.43 in1064.3 mb 0.00 in0.0 mm 0.00 in0.0 mm 0.00 in0.0 mm
08:45 AM 40.1°F4.5°C 30.8°F-0.7°C 69% 11.4 mph S18.3 kmh S 19.7 mph31.7 kmh 31.44 in1064.7 mb 0.00 in0.0 mm 0.00 in0.0 mm 0.00 in0.0 mm
08:40 AM 39.9°F4.4°C 30.2°F-1.0°C 68% 10.4 mph S16.7 kmh S 17.4 mph28.0 kmh 31.44 in1064.7 mb 0.00 in0.0 mm 0.00 in0.0 mm 0.00 in0.0 mm
08:35 AM 39.7°F4.3°C 29.7°F-1.3°C 67% 11.5 mph S18.5 kmh S 20.6 mph33.2 kmh 31.44 in1064.7 mb 0.00 in0.0 mm 0.00 in0.0 mm 0.00 in0.0 mm
08:30 AM 39.7°F4.3°C 29.7°F-1.3°C 67% 12.0 mph S19.3 kmh S 20.6 mph33.2 kmh 31.43 in1064.3 mb 0.00 in0.0 mm 0.00 in0.0 mm 0.00 in0.0 mm
08:25 AM 39.7°F4.3°C 29.3°F-1.5°C 66% 12.4 mph S20.0 kmh S 19.7 mph31.7 kmh 31.44 in1064.7 mb 0.00 in0.0 mm 0.00 in0.0 mm 0.00 in0.0 mm
08:20 AM 40.1°F4.5°C 29.3°F-1.5°C 65% 12.0 mph SSW19.3 kmh SSW 19.7 mph31.7 kmh 31.44 in1064.7 mb 0.00 in0.0 mm 0.00 in0.0 mm 0.00 in0.0 mm
08:15 AM 40.1°F4.5°C 29.3°F-1.5°C 65% 10.2 mph SSW16.4 kmh SSW 18.3 mph29.5 kmh 31.43 in1064.3 mb 0.00 in0.0 mm 0.00 in0.0 mm 0.00 in0.0 mm
08:10 AM 39.9°F4.4°C 29.1°F-1.6°C 65% 10.1 mph SSW16.3 kmh SSW 18.3 mph29.5 kmh 31.44 in1064.7 mb 0.00 in0.0 mm 0.00 in0.0 mm 0.00 in0.0 mm
08:05 AM 39.7°F4.3°C 29.0°F-1.7°C 65% 10.9 mph S17.5 kmh S 15.9 mph25.6 kmh 31.44 in1064.7 mb 0.00 in0.0 mm 0.00 in0.0 mm 0.00 in0.0 mm
08:00 AM 39.7°F4.3°C 29.3°F-1.5°C 66% 12.2 mph S19.6 kmh S 18.3 mph29.5 kmh 31.44 in1064.7 mb 0.00 in0.0 mm 0.00 in0.0 mm 0.00 in0.0 mm
07:55 AM 39.7°F4.3°C 29.3°F-1.5°C 66% 12.5 mph S20.1 kmh S 19.0 mph30.6 kmh 31.45 in1065.0 mb 0.00 in0.0 mm 0.00 in0.0 mm 0.00 in0.0 mm
07:50 AM 39.7°F4.3°C 29.0°F-1.7°C 65% 12.3 mph S19.8 kmh S 19.0 mph30.6 kmh 31.44 in1064.7 mb 0.00 in0.0 mm 0.00 in0.0 mm 0.00 in0.0 mm
07:45 AM 39.9°F4.4°C 29.1°F-1.6°C 65% 11.3 mph S18.2 kmh S 18.3 mph29.5 kmh 31.45 in1065.0 mb 0.00 in0.0 mm 0.00 in0.0 mm 0.00 in0.0 mm
07:40 AM 40.3°F4.6°C 29.1°F-1.6°C 64% 9.9 mph S15.9 kmh S 15.9 mph25.6 kmh 31.44 in1064.7 mb 0.00 in0.0 mm 0.00 in0.0 mm 0.00 in0.0 mm
07:35 AM 40.3°F4.6°C 28.7°F-1.8°C 63% 9.9 mph SSW15.9 kmh SSW 15.9 mph25.6 kmh 31.44 in1064.7 mb 0.00 in0.0 mm 0.00 in0.0 mm 0.00 in0.0 mm
07:30 AM 40.3°F4.6°C 29.1°F-1.6°C 64% 9.8 mph SSW15.8 kmh SSW 15.9 mph25.6 kmh 31.44 in1064.7 mb 0.00 in0.0 mm 0.00 in0.0 mm 0.00 in0.0 mm
07:25 AM 40.3°F4.6°C 29.1°F-1.6°C 64% 10.8 mph S17.4 kmh S 18.3 mph29.5 kmh 31.45 in1065.0 mb 0.00 in0.0 mm 0.00 in0.0 mm 0.00 in0.0 mm
07:20 AM 40.3°F4.6°C 29.1°F-1.6°C 64% 11.8 mph S19.0 kmh S 18.3 mph29.5 kmh 31.44 in1064.7 mb 0.00 in0.0 mm 0.00 in0.0 mm 0.00 in0.0 mm
07:15 AM 40.1°F4.5°C 28.9°F-1.7°C 64% 12.3 mph S19.8 kmh S 17.4 mph28.0 kmh 31.44 in1064.7 mb 0.00 in0.0 mm 0.00 in0.0 mm 0.00 in0.0 mm
07:10 AM 40.1°F4.5°C 28.5°F-1.9°C 63% 12.5 mph S20.1 kmh S 19.7 mph31.7 kmh 31.45 in1065.0 mb 0.00 in0.0 mm 0.00 in0.0 mm 0.00 in0.0 mm
07:05 AM 40.1°F4.5°C 28.9°F-1.7°C 64% 11.5 mph S18.5 kmh S 19.7 mph31.7 kmh 31.45 in1065.0 mb 0.00 in0.0 mm 0.00 in0.0 mm 0.00 in0.0 mm
07:00 AM 40.1°F4.5°C 29.3°F-1.5°C 65% 10.4 mph S16.7 kmh S 18.3 mph29.5 kmh 31.45 in1065.0 mb 0.00 in0.0 mm 0.00 in0.0 mm 0.00 in0.0 mm
06:55 AM 39.9°F4.4°C 29.1°F-1.6°C 65% 10.1 mph SSW16.3 kmh SSW 18.3 mph29.5 kmh 31.45 in1065.0 mb 0.00 in0.0 mm 0.00 in0.0 mm 0.00 in0.0 mm
06:50 AM 39.7°F4.3°C 29.7°F-1.3°C 67% 9.8 mph S15.8 kmh S 18.3 mph29.5 kmh 31.46 in1065.4 mb 0.00 in0.0 mm 0.00 in0.0 mm 0.00 in0.0 mm
06:45 AM 39.6°F4.2°C 29.5°F-1.4°C 67% 9.1 mph S14.6 kmh S 16.8 mph27.0 kmh 31.46 in1065.4 mb 0.00 in0.0 mm 0.00 in0.0 mm 0.00 in0.0 mm
06:40 AM 39.6°F4.2°C 29.5°F-1.4°C 67% 9.0 mph S14.5 kmh S 16.8 mph27.0 kmh 31.45 in1065.0 mb 0.00 in0.0 mm 0.00 in0.0 mm 0.00 in0.0 mm
06:35 AM 39.7°F4.3°C 29.3°F-1.5°C 66% 8.7 mph S14.0 kmh S 15.2 mph24.5 kmh 31.46 in1065.4 mb 0.00 in0.0 mm 0.00 in0.0 mm 0.00 in0.0 mm
06:30 AM 39.7°F4.3°C 29.3°F-1.5°C 66% 8.6 mph S13.8 kmh S 13.0 mph20.9 kmh 31.46 in1065.4 mb 0.00 in0.0 mm 0.00 in0.0 mm 0.00 in0.0 mm
06:25 AM 39.6°F4.2°C 29.5°F-1.4°C 67% 8.7 mph S14.0 kmh S 13.6 mph21.9 kmh 31.46 in1065.4 mb 0.00 in0.0 mm 0.00 in0.0 mm 0.00 in0.0 mm
06:20 AM 39.6°F4.2°C 29.9°F-1.2°C 68% 8.0 mph S12.9 kmh S 13.6 mph21.9 kmh 31.46 in1065.4 mb 0.00 in0.0 mm 0.00 in0.0 mm 0.00 in0.0 mm
06:15 AM 39.4°F4.1°C 30.4°F-0.9°C 70% 7.9 mph S12.7 kmh S 13.0 mph20.9 kmh 31.46 in1065.4 mb 0.00 in0.0 mm 0.00 in0.0 mm 0.00 in0.0 mm
06:10 AM 39.2°F4.0°C 30.3°F-0.9°C 70% 7.5 mph SSW12.1 kmh SSW 13.6 mph21.9 kmh 31.46 in1065.4 mb 0.00 in0.0 mm 0.00 in0.0 mm 0.00 in0.0 mm
06:05 AM 39.2°F4.0°C 29.9°F-1.2°C 69% 8.6 mph SSW13.8 kmh SSW 15.2 mph24.5 kmh 31.46 in1065.4 mb 0.00 in0.0 mm 0.00 in0.0 mm 0.00 in0.0 mm
06:00 AM 39.2°F4.0°C 29.5°F-1.4°C 68% 10.0 mph SSW16.1 kmh SSW 15.2 mph24.5 kmh 31.46 in1065.4 mb 0.00 in0.0 mm 0.00 in0.0 mm 0.00 in0.0 mm
05:55 AM 39.4°F4.1°C 29.7°F-1.3°C 68% 9.1 mph SSW14.6 kmh SSW 13.6 mph21.9 kmh 31.46 in1065.4 mb 0.00 in0.0 mm 0.00 in0.0 mm 0.00 in0.0 mm
05:50 AM 39.7°F4.3°C 29.7°F-1.3°C 67% 8.2 mph S13.2 kmh S 11.4 mph18.3 kmh 31.46 in1065.4 mb 0.00 in0.0 mm 0.00 in0.0 mm 0.00 in0.0 mm
05:45 AM 39.4°F4.1°C 30.1°F-1.1°C 69% 7.8 mph S12.6 kmh S 11.4 mph18.3 kmh 31.46 in1065.4 mb 0.00 in0.0 mm 0.00 in0.0 mm 0.00 in0.0 mm
05:40 AM 39.2°F4.0°C 29.9°F-1.2°C 69% 8.2 mph SSW13.2 kmh SSW 13.6 mph21.9 kmh 31.46 in1065.4 mb 0.00 in0.0 mm 0.00 in0.0 mm 0.00 in0.0 mm
05:35 AM 39.6°F4.2°C 30.2°F-1.0°C 69% 9.1 mph SSW14.6 kmh SSW 13.6 mph21.9 kmh 31.46 in1065.4 mb 0.00 in0.0 mm 0.00 in0.0 mm 0.00 in0.0 mm
05:30 AM 39.4°F4.1°C 29.7°F-1.3°C 68% 9.5 mph SSW15.3 kmh SSW 13.6 mph21.9 kmh 31.46 in1065.4 mb 0.00 in0.0 mm 0.00 in0.0 mm 0.00 in0.0 mm
05:25 AM 39.4°F4.1°C 29.7°F-1.3°C 68% 8.7 mph SSW14.0 kmh SSW 15.2 mph24.5 kmh 31.46 in1065.4 mb 0.00 in0.0 mm 0.00 in0.0 mm 0.00 in0.0 mm
05:20 AM 39.2°F4.0°C 30.3°F-0.9°C 70% 8.4 mph SSW13.5 kmh SSW 15.2 mph24.5 kmh 31.46 in1065.4 mb 0.00 in0.0 mm 0.00 in0.0 mm 0.00 in0.0 mm
05:15 AM 38.8°F3.8°C 29.9°F-1.2°C 70% 8.8 mph S14.2 kmh S 12.1 mph19.5 kmh 31.46 in1065.4 mb 0.00 in0.0 mm 0.00 in0.0 mm 0.00 in0.0 mm
05:10 AM 38.7°F3.7°C 29.7°F-1.3°C 70% 8.7 mph SSW14.0 kmh SSW 13.0 mph20.9 kmh 31.46 in1065.4 mb 0.00 in0.0 mm 0.00 in0.0 mm 0.00 in0.0 mm
05:05 AM 38.5°F3.6°C 29.6°F-1.3°C 70% 9.2 mph S14.8 kmh S 13.0 mph20.9 kmh 31.46 in1065.4 mb 0.00 in0.0 mm 0.00 in0.0 mm 0.00 in0.0 mm
05:00 AM 38.5°F3.6°C 29.6°F-1.3°C 70% 10.4 mph S16.7 kmh S 15.9 mph25.6 kmh 31.46 in1065.4 mb 0.00 in0.0 mm 0.00 in0.0 mm 0.00 in0.0 mm
04:55 AM 38.8°F3.8°C 29.6°F-1.3°C 69% 10.8 mph SSW17.4 kmh SSW 16.8 mph27.0 kmh 31.46 in1065.4 mb 0.00 in0.0 mm 0.00 in0.0 mm 0.00 in0.0 mm
04:50 AM 38.7°F3.7°C 29.4°F-1.4°C 69% 10.1 mph SSW16.3 kmh SSW 16.8 mph27.0 kmh 31.47 in1065.7 mb 0.00 in0.0 mm 0.00 in0.0 mm 0.00 in0.0 mm
04:45 AM 38.5°F3.6°C 29.9°F-1.2°C 71% 9.4 mph S15.1 kmh S 15.9 mph25.6 kmh 31.46 in1065.4 mb 0.00 in0.0 mm 0.00 in0.0 mm 0.00 in0.0 mm
04:40 AM 38.3°F3.5°C 29.7°F-1.3°C 71% 8.8 mph S14.2 kmh S 15.9 mph25.6 kmh 31.46 in1065.4 mb 0.00 in0.0 mm 0.00 in0.0 mm 0.00 in0.0 mm
04:35 AM 38.1°F3.4°C 29.9°F-1.2°C 72% 8.6 mph S13.8 kmh S 13.6 mph21.9 kmh 31.47 in1065.7 mb 0.00 in0.0 mm 0.00 in0.0 mm 0.00 in0.0 mm
04:30 AM 38.1°F3.4°C 29.9°F-1.2°C 72% 9.6 mph S15.4 kmh S 13.6 mph21.9 kmh 31.47 in1065.7 mb 0.00 in0.0 mm 0.00 in0.0 mm 0.00 in0.0 mm
04:25 AM 38.1°F3.4°C 29.9°F-1.2°C 72% 10.1 mph S16.3 kmh S 15.9 mph25.6 kmh 31.47 in1065.7 mb 0.00 in0.0 mm 0.00 in0.0 mm 0.00 in0.0 mm
04:20 AM 38.1°F3.4°C 29.9°F-1.2°C 72% 8.8 mph S14.2 kmh S 15.9 mph25.6 kmh 31.47 in1065.7 mb 0.00 in0.0 mm 0.00 in0.0 mm 0.00 in0.0 mm
04:15 AM 38.1°F3.4°C 29.6°F-1.3°C 71% 6.9 mph S11.1 kmh S 10.7 mph17.2 kmh 31.47 in1065.7 mb 0.00 in0.0 mm 0.00 in0.0 mm 0.00 in0.0 mm
04:10 AM 38.1°F3.4°C 29.2°F-1.6°C 70% 6.8 mph S10.9 kmh S 11.4 mph18.3 kmh 31.47 in1065.7 mb 0.00 in0.0 mm 0.00 in0.0 mm 0.00 in0.0 mm
04:05 AM 38.1°F3.4°C 29.2°F-1.6°C 70% 8.0 mph SSW12.9 kmh SSW 13.0 mph20.9 kmh 31.47 in1065.7 mb 0.00 in0.0 mm 0.00 in0.0 mm 0.00 in0.0 mm
04:00 AM 38.1°F3.4°C 29.2°F-1.6°C 70% 7.8 mph SSW12.6 kmh SSW 13.0 mph20.9 kmh 31.47 in1065.7 mb 0.00 in0.0 mm 0.00 in0.0 mm 0.00 in0.0 mm
03:55 AM 38.1°F3.4°C 29.6°F-1.3°C 71% 7.9 mph S12.7 kmh S 13.6 mph21.9 kmh 31.48 in1066.0 mb 0.00 in0.0 mm 0.00 in0.0 mm 0.00 in0.0 mm
03:50 AM 38.1°F3.4°C 29.6°F-1.3°C 71% 8.7 mph S14.0 kmh S 13.6 mph21.9 kmh 31.47 in1065.7 mb 0.00 in0.0 mm 0.00 in0.0 mm 0.00 in0.0 mm
03:45 AM 38.1°F3.4°C 29.2°F-1.6°C 70% 8.7 mph S14.0 kmh S 13.6 mph21.9 kmh 31.48 in1066.0 mb 0.00 in0.0 mm 0.00 in0.0 mm 0.00 in0.0 mm
03:40 AM 38.3°F3.5°C 29.4°F-1.4°C 70% 8.7 mph S14.0 kmh S 12.1 mph19.5 kmh 31.47 in1065.7 mb 0.00 in0.0 mm 0.00 in0.0 mm 0.00 in0.0 mm
03:35 AM 38.3°F3.5°C 29.4°F-1.4°C 70% 7.4 mph S11.9 kmh S 11.4 mph18.3 kmh 31.47 in1065.7 mb 0.00 in0.0 mm 0.00 in0.0 mm 0.00 in0.0 mm
03:30 AM 38.3°F3.5°C 29.4°F-1.4°C 70% 6.9 mph S11.1 kmh S 13.6 mph21.9 kmh 31.48 in1066.0 mb 0.00 in0.0 mm 0.00 in0.0 mm 0.00 in0.0 mm
03:25 AM 38.3°F3.5°C 29.4°F-1.4°C 70% 7.4 mph S11.9 kmh S 13.6 mph21.9 kmh 31.47 in1065.7 mb 0.00 in0.0 mm 0.00 in0.0 mm 0.00 in0.0 mm
03:20 AM 38.3°F3.5°C 29.4°F-1.4°C 70% 7.0 mph S11.3 kmh S 12.1 mph19.5 kmh 31.48 in1066.0 mb 0.00 in0.0 mm 0.00 in0.0 mm 0.00 in0.0 mm
03:15 AM 38.1°F3.4°C 29.2°F-1.6°C 70% 6.4 mph S10.3 kmh S 12.1 mph19.5 kmh 31.48 in1066.0 mb 0.00 in0.0 mm 0.00 in0.0 mm 0.00 in0.0 mm
03:10 AM 37.9°F3.3°C 29.0°F-1.7°C 70% 5.0 mph S8.0 kmh S 10.7 mph17.2 kmh 31.48 in1066.0 mb 0.00 in0.0 mm 0.00 in0.0 mm 0.00 in0.0 mm
03:05 AM 37.9°F3.3°C 29.0°F-1.7°C 70% 4.5 mph S7.2 kmh S 8.3 mph13.4 kmh 31.48 in1066.0 mb 0.00 in0.0 mm 0.00 in0.0 mm 0.00 in0.0 mm
03:00 AM 38.1°F3.4°C 29.2°F-1.6°C 70% 5.1 mph S8.2 kmh S 8.3 mph13.4 kmh 31.48 in1066.0 mb 0.00 in0.0 mm 0.00 in0.0 mm 0.00 in0.0 mm
02:55 AM 38.1°F3.4°C 29.2°F-1.6°C 70% 5.4 mph SSE8.7 kmh SSE 8.3 mph13.4 kmh 31.48 in1066.0 mb 0.00 in0.0 mm 0.00 in0.0 mm 0.00 in0.0 mm
02:50 AM 38.3°F3.5°C 29.4°F-1.4°C 70% 5.7 mph S9.2 kmh S 8.3 mph13.4 kmh 31.48 in1066.0 mb 0.00 in0.0 mm 0.00 in0.0 mm 0.00 in0.0 mm
02:45 AM 38.3°F3.5°C 29.4°F-1.4°C 70% 6.8 mph SSE10.9 kmh SSE 11.4 mph18.3 kmh 31.48 in1066.0 mb 0.00 in0.0 mm 0.00 in0.0 mm 0.00 in0.0 mm
02:40 AM 38.5°F3.6°C 29.6°F-1.3°C 70% 7.5 mph SSE12.1 kmh SSE 11.4 mph18.3 kmh 31.48 in1066.0 mb 0.00 in0.0 mm 0.00 in0.0 mm 0.00 in0.0 mm
02:35 AM 38.3°F3.5°C 29.0°F-1.7°C 69% 7.3 mph SSE11.7 kmh SSE 9.8 mph15.8 kmh 31.48 in1066.0 mb 0.00 in0.0 mm 0.00 in0.0 mm 0.00 in0.0 mm
02:30 AM 38.3°F3.5°C 29.0°F-1.7°C 69% 6.6 mph SSE10.6 kmh SSE 9.8 mph15.8 kmh 31.48 in1066.0 mb 0.00 in0.0 mm 0.00 in0.0 mm 0.00 in0.0 mm
02:25 AM 38.5°F3.6°C 29.2°F-1.6°C 69% 5.4 mph SSE8.7 kmh SSE 9.8 mph15.8 kmh 31.48 in1066.0 mb 0.00 in0.0 mm 0.00 in0.0 mm 0.00 in0.0 mm
02:20 AM 38.5°F3.6°C 29.6°F-1.3°C 70% 6.5 mph S10.5 kmh S 9.8 mph15.8 kmh 31.48 in1066.0 mb 0.00 in0.0 mm 0.00 in0.0 mm 0.00 in0.0 mm
02:15 AM 38.7°F3.7°C 29.4°F-1.4°C 69% 8.5 mph S13.7 kmh S 12.1 mph19.5 kmh 31.48 in1066.0 mb 0.00 in0.0 mm 0.00 in0.0 mm 0.00 in0.0 mm
02:10 AM 38.8°F3.8°C 29.2°F-1.6°C 68% 8.7 mph S14.0 kmh S 13.0 mph20.9 kmh 31.49 in1066.4 mb 0.00 in0.0 mm 0.00 in0.0 mm 0.00 in0.0 mm
02:05 AM 38.8°F3.8°C 29.2°F-1.6°C 68% 8.0 mph S12.9 kmh S 13.0 mph20.9 kmh 31.49 in1066.4 mb 0.00 in0.0 mm 0.00 in0.0 mm 0.00 in0.0 mm
02:00 AM 39.0°F3.9°C 29.4°F-1.4°C 68% 7.2 mph SSE11.6 kmh SSE 11.4 mph18.3 kmh 31.49 in1066.4 mb 0.00 in0.0 mm 0.00 in0.0 mm 0.00 in0.0 mm
01:55 AM 39.0°F3.9°C 29.7°F-1.3°C 69% 7.1 mph S11.4 kmh S 11.4 mph18.3 kmh 31.49 in1066.4 mb 0.00 in0.0 mm 0.00 in0.0 mm 0.00 in0.0 mm
01:50 AM 38.8°F3.8°C 29.6°F-1.3°C 69% 6.4 mph S10.3 kmh S 11.4 mph18.3 kmh 31.49 in1066.4 mb 0.00 in0.0 mm 0.00 in0.0 mm 0.00 in0.0 mm
01:45 AM 38.8°F3.8°C 29.6°F-1.3°C 69% 6.1 mph S9.8 kmh S 9.8 mph15.8 kmh 31.48 in1066.0 mb 0.00 in0.0 mm 0.00 in0.0 mm 0.00 in0.0 mm
01:40 AM 39.0°F3.9°C 29.4°F-1.4°C 68% 6.5 mph S10.5 kmh S 9.8 mph15.8 kmh 31.49 in1066.4 mb 0.00 in0.0 mm 0.00 in0.0 mm 0.00 in0.0 mm
01:35 AM 39.2°F4.0°C 29.5°F-1.4°C 68% 6.6 mph S10.6 kmh S 9.8 mph15.8 kmh 31.49 in1066.4 mb 0.00 in0.0 mm 0.00 in0.0 mm 0.00 in0.0 mm
01:30 AM 39.2°F4.0°C 29.5°F-1.4°C 68% 6.2 mph S10.0 kmh S 9.8 mph15.8 kmh 31.49 in1066.4 mb 0.00 in0.0 mm 0.00 in0.0 mm 0.00 in0.0 mm
01:25 AM 39.2°F4.0°C 29.2°F-1.6°C 67% 5.3 mph S8.5 kmh S 8.3 mph13.4 kmh 31.49 in1066.4 mb 0.00 in0.0 mm 0.00 in0.0 mm 0.00 in0.0 mm
01:20 AM 39.2°F4.0°C 29.2°F-1.6°C 67% 4.1 mph S6.6 kmh S 7.6 mph12.2 kmh 31.49 in1066.4 mb 0.00 in0.0 mm 0.00 in0.0 mm 0.00 in0.0 mm
01:15 AM 39.2°F4.0°C 29.2°F-1.6°C 67% 3.8 mph S6.1 kmh S 6.9 mph11.1 kmh 31.49 in1066.4 mb 0.00 in0.0 mm 0.00 in0.0 mm 0.00 in0.0 mm
01:10 AM 39.4°F4.1°C 29.4°F-1.4°C 67% 4.9 mph S7.9 kmh S 8.3 mph13.4 kmh 31.49 in1066.4 mb 0.00 in0.0 mm 0.00 in0.0 mm 0.00 in0.0 mm
01:05 AM 39.4°F4.1°C 29.0°F-1.7°C 66% 6.1 mph S9.8 kmh S 11.4 mph18.3 kmh 31.49 in1066.4 mb 0.00 in0.0 mm 0.00 in0.0 mm 0.00 in0.0 mm
01:00 AM 39.6°F4.2°C 29.2°F-1.6°C 66% 5.5 mph S8.9 kmh S 11.4 mph18.3 kmh 31.49 in1066.4 mb 0.00 in0.0 mm 0.00 in0.0 mm 0.00 in0.0 mm
12:55 AM 39.6°F4.2°C 29.2°F-1.6°C 66% 3.9 mph S6.3 kmh S 7.6 mph12.2 kmh 31.49 in1066.4 mb 0.00 in0.0 mm 0.00 in0.0 mm 0.00 in0.0 mm
12:50 AM 39.6°F4.2°C 29.2°F-1.6°C 66% 4.1 mph SSE6.6 kmh SSE 8.3 mph13.4 kmh 31.49 in1066.4 mb 0.00 in0.0 mm 0.00 in0.0 mm 0.00 in0.0 mm
12:45 AM 39.6°F4.2°C 29.2°F-1.6°C 66% 4.8 mph SE7.7 kmh SE 9.8 mph15.8 kmh 31.49 in1066.4 mb 0.00 in0.0 mm 0.00 in0.0 mm 0.00 in0.0 mm
12:40 AM 39.6°F4.2°C 29.2°F-1.6°C 66% 5.4 mph S8.7 kmh S 9.8 mph15.8 kmh 31.49 in1066.4 mb 0.00 in0.0 mm 0.00 in0.0 mm 0.00 in0.0 mm
12:35 AM 39.6°F4.2°C 29.2°F-1.6°C 66% 5.8 mph S9.3 kmh S 9.2 mph14.8 kmh 31.49 in1066.4 mb 0.00 in0.0 mm 0.00 in0.0 mm 0.00 in0.0 mm
12:30 AM 39.6°F4.2°C 29.2°F-1.6°C 66% 5.1 mph SSE8.2 kmh SSE 9.2 mph14.8 kmh 31.50 in1066.7 mb 0.00 in0.0 mm 0.00 in0.0 mm 0.00 in0.0 mm
12:25 AM 39.6°F4.2°C 29.2°F-1.6°C 66% 5.5 mph SSE8.9 kmh SSE 10.7 mph17.2 kmh 31.49 in1066.4 mb 0.00 in0.0 mm 0.00 in0.0 mm 0.00 in0.0 mm
12:20 AM 39.6°F4.2°C 29.5°F-1.4°C 67% 5.6 mph S9.0 kmh S 10.7 mph17.2 kmh 31.49 in1066.4 mb 0.00 in0.0 mm 0.00 in0.0 mm 0.00 in0.0 mm
12:15 AM 39.4°F4.1°C 29.4°F-1.4°C 67% 4.4 mph S7.1 kmh S 10.7 mph17.2 kmh 31.49 in1066.4 mb 0.00 in0.0 mm 0.00 in0.0 mm 0.00 in0.0 mm
12:10 AM 39.4°F4.1°C 29.4°F-1.4°C 67% 4.1 mph S6.6 kmh S 6.9 mph11.1 kmh 31.49 in1066.4 mb 0.00 in0.0 mm 0.00 in0.0 mm 0.00 in0.0 mm
12:05 AM 39.4°F4.1°C 29.4°F-1.4°C 67% 4.0 mph S6.4 kmh S 8.3 mph13.4 kmh 31.49 in1066.4 mb 0.00 in0.0 mm 0.00 in0.0 mm 0.00 in0.0 mm
12:00 AM 39.2°F4.0°C 29.2°F-1.6°C 67% 3.6 mph SSE5.8 kmh SSE 8.3 mph13.4 kmh 31.49 in1066.4 mb 0.00 in0.0 mm 0.00 in0.0 mm 0.00 in0.0 mm